Time;durP1;ratioP1;P1;durP2;ratioP2;P2;SDS_P1;SDS_P2;PMS_P1;PMS_P2;Temp;Humidity;BMP_temperature;BMP_pressure;BME280_temperature;BME280_humidity;BME280_pressure;Samples;Min_cycle;Max_cycle;Signal;HPM_P1;HPM_P2
2023/04/26 00:01:02;;;;;;;7.53;1.70;;;4.80;99.90;;;;;;5226621;28;20296;-49
2023/04/26 00:03:33;;;;;;;2.73;1.40;;;4.80;99.90;;;;;;5248554;28;20454;-48
2023/04/26 00:06:07;;;;;;;3.63;1.20;;;4.80;99.90;;;;;;5246493;28;20429;-47
2023/04/26 00:08:38;;;;;;;6.37;1.87;;;4.80;99.90;;;;;;5250786;28;20709;-48
2023/04/26 00:11:09;;;;;;;14.23;1.70;;;4.80;99.90;;;;;;5246872;28;20536;-47
2023/04/26 00:13:40;;;;;;;9.03;1.73;;;4.80;99.90;;;;;;5248570;28;20184;-49
2023/04/26 00:16:13;;;;;;;8.80;1.80;;;4.70;99.90;;;;;;5247326;28;20185;-48
2023/04/26 00:18:45;;;;;;;6.53;1.50;;;4.60;99.90;;;;;;5244926;28;20549;-47
2023/04/26 00:21:15;;;;;;;1.50;1.40;;;4.70;99.90;;;;;;5247731;28;20463;-47
2023/04/26 00:23:49;;;;;;;7.90;1.57;;;4.60;99.90;;;;;;5245099;28;20446;-47
2023/04/26 00:26:20;;;;;;;1.80;1.30;;;4.70;99.90;;;;;;5246380;28;20262;-47
2023/04/26 00:28:51;;;;;;;7.43;1.80;;;4.70;99.90;;;;;;5264948;28;20464;-48
2023/04/26 00:31:22;;;;;;;6.67;1.43;;;4.60;99.90;;;;;;5241078;28;20245;-47
2023/04/26 00:33:55;;;;;;;10.40;2.00;;;4.60;99.90;;;;;;5248437;28;20527;-46
2023/04/26 00:36:26;;;;;;;6.73;2.03;;;4.60;99.90;;;;;;5249235;28;20184;-46
2023/04/26 00:39:00;;;;;;;13.93;1.87;;;4.70;99.90;;;;;;5228949;28;20447;-48
2023/04/26 00:41:31;;;;;;;11.57;2.10;;;4.60;99.90;;;;;;5247934;28;20461;-46
2023/04/26 00:44:01;;;;;;;6.73;1.47;;;4.60;99.90;;;;;;5242493;28;20441;-48
2023/04/26 00:46:32;;;;;;;5.20;1.00;;;4.50;99.90;;;;;;5242451;28;20261;-47
2023/04/26 00:49:03;;;;;;;3.50;1.27;;;4.50;99.90;;;;;;5243368;28;20207;-47
2023/04/26 00:51:35;;;;;;;5.07;1.50;;;4.40;99.90;;;;;;5245306;28;20280;-47
2023/04/26 00:54:06;;;;;;;4.83;1.07;;;4.40;99.90;;;;;;5249548;28;20799;-47
2023/04/26 00:56:39;;;;;;;10.00;2.13;;;4.40;99.90;;;;;;5245704;28;20426;-48
2023/04/26 00:59:10;;;;;;;5.40;1.10;;;4.40;99.90;;;;;;5251198;28;20184;-48
2023/04/26 01:01:41;;;;;;;3.23;1.40;;;4.40;99.90;;;;;;5250910;28;20472;-47
2023/04/26 01:04:13;;;;;;;10.93;2.77;;;4.30;99.90;;;;;;5254360;28;20460;-49
2023/04/26 01:06:44;;;;;;;9.30;1.73;;;4.30;99.90;;;;;;5246828;28;20189;-47
2023/04/26 01:09:17;;;;;;;9.30;2.03;;;4.20;99.90;;;;;;5247163;28;21388;-46
2023/04/26 01:11:49;;;;;;;4.60;1.90;;;4.20;99.90;;;;;;5243679;28;21094;-47
2023/04/26 01:14:20;;;;;;;2.13;1.93;;;4.10;99.90;;;;;;5248659;28;20830;-47
2023/04/26 01:16:51;;;;;;;3.77;1.40;;;4.10;99.90;;;;;;5248725;28;20438;-47
2023/04/26 01:19:22;;;;;;;5.60;1.93;;;4.10;99.90;;;;;;5248569;28;20434;-48
2023/04/26 01:21:55;;;;;;;6.27;1.70;;;4.10;99.90;;;;;;5248864;28;20214;-48
2023/04/26 01:24:27;;;;;;;6.07;2.03;;;4.10;99.90;;;;;;5245861;28;20190;-47
2023/04/26 01:26:58;;;;;;;9.30;1.97;;;4.10;99.90;;;;;;5248856;28;20447;-47
2023/04/26 01:29:30;;;;;;;5.70;1.60;;;4.10;99.90;;;;;;5241274;28;20475;-47
2023/04/26 01:32:01;;;;;;;4.63;2.00;;;4.10;99.90;;;;;;5243410;28;20457;-47
2023/04/26 01:34:33;;;;;;;6.60;1.17;;;4.00;99.90;;;;;;5242200;28;20441;-49
2023/04/26 01:37:04;;;;;;;2.00;1.20;;;4.00;99.90;;;;;;5241831;28;20193;-47
2023/04/26 01:39:35;;;;;;;9.30;1.70;;;3.90;99.90;;;;;;5244876;28;20436;-47
2023/04/26 01:42:06;;;;;;;6.03;1.60;;;3.90;99.90;;;;;;5230117;28;20242;-46
2023/04/26 01:44:37;;;;;;;1.93;1.37;;;4.00;99.90;;;;;;5245697;28;20441;-46
2023/04/26 01:47:08;;;;;;;4.10;1.80;;;3.90;99.90;;;;;;5245695;28;20436;-48
2023/04/26 01:49:38;;;;;;;6.13;1.33;;;3.90;99.90;;;;;;5246534;28;20215;-47
2023/04/26 01:52:09;;;;;;;2.30;1.20;;;4.00;99.90;;;;;;5246145;28;20199;-47
2023/04/26 01:54:40;;;;;;;3.20;1.40;;;4.00;99.90;;;;;;5248824;28;20521;-47
2023/04/26 01:57:11;;;;;;;3.93;1.50;;;3.90;99.90;;;;;;5247465;28;20225;-47
2023/04/26 01:59:41;;;;;;;5.50;1.83;;;3.90;99.90;;;;;;5249179;28;20469;-48
2023/04/26 02:02:12;;;;;;;3.33;1.47;;;3.90;99.90;;;;;;5242593;28;20520;-46
2023/04/26 02:04:43;;;;;;;5.50;2.03;;;3.90;99.90;;;;;;5244487;28;20192;-47
2023/04/26 02:07:14;;;;;;;3.77;1.23;;;3.90;99.90;;;;;;5246920;28;20232;-48
2023/04/26 02:09:45;;;;;;;4.83;1.80;;;3.80;99.90;;;;;;5247506;28;21012;-47
2023/04/26 02:12:16;;;;;;;7.47;2.40;;;3.70;99.90;;;;;;5246064;28;20237;-47
2023/04/26 02:14:47;;;;;;;4.23;1.73;;;3.80;99.90;;;;;;5248571;28;20189;-47
2023/04/26 02:17:20;;;;;;;6.23;1.70;;;3.70;99.90;;;;;;5238658;28;20449;-48
2023/04/26 02:19:50;;;;;;;3.10;1.47;;;3.70;99.90;;;;;;5248558;28;20196;-48
2023/04/26 02:22:24;;;;;;;5.17;1.70;;;3.70;99.90;;;;;;5246139;28;20464;-48
2023/04/26 02:24:54;;;;;;;12.37;1.90;;;3.70;99.90;;;;;;5245835;28;20220;-47
2023/04/26 02:27:28;;;;;;;4.03;1.53;;;3.70;99.90;;;;;;5245059;28;20436;-46
2023/04/26 02:29:59;;;;;;;6.70;1.80;;;3.70;99.90;;;;;;5250579;28;20300;-46
2023/04/26 02:32:29;;;;;;;13.40;1.87;;;3.60;99.90;;;;;;5243798;28;20559;-47
2023/04/26 02:35:00;;;;;;;9.97;2.60;;;3.60;99.90;;;;;;5240728;28;20238;-47
2023/04/26 02:37:32;;;;;;;6.70;1.63;;;3.70;99.90;;;;;;5239559;28;20186;-48
2023/04/26 02:40:04;;;;;;;13.20;2.00;;;3.60;99.90;;;;;;5248058;28;20207;-47
2023/04/26 02:42:38;;;;;;;4.90;1.40;;;3.60;99.90;;;;;;5245376;28;20453;-47
2023/04/26 02:45:08;;;;;;;4.67;1.83;;;3.60;99.90;;;;;;5260354;28;20506;-48
2023/04/26 02:47:39;;;;;;;8.93;2.07;;;3.60;99.90;;;;;;5246502;28;20440;-49
2023/04/26 02:50:11;;;;;;;3.70;1.30;;;3.50;99.90;;;;;;5231275;28;20244;-47
2023/04/26 02:52:41;;;;;;;7.60;1.60;;;3.50;99.90;;;;;;5246259;28;20448;-49
2023/04/26 02:55:13;;;;;;;6.00;2.10;;;3.50;99.90;;;;;;5247358;28;20432;-46
2023/04/26 02:57:43;;;;;;;4.23;1.40;;;3.40;99.90;;;;;;5245609;28;20186;-46
2023/04/26 03:00:14;;;;;;;3.23;1.80;;;3.40;99.90;;;;;;5249455;28;20458;-48
2023/04/26 03:02:45;;;;;;;11.93;1.50;;;3.60;99.90;;;;;;5244903;28;20669;-47
2023/04/26 03:05:18;;;;;;;4.00;1.47;;;3.40;99.90;;;;;;5247089;28;20456;-46
2023/04/26 03:07:49;;;;;;;6.13;2.00;;;3.40;99.90;;;;;;5244189;28;20282;-48
2023/04/26 03:10:22;;;;;;;5.27;2.00;;;3.40;99.90;;;;;;5248268;28;20522;-46
2023/04/26 03:12:56;;;;;;;5.40;2.30;;;3.30;99.90;;;;;;5248450;28;20191;-47
2023/04/26 03:15:29;;;;;;;6.63;1.50;;;3.30;99.90;;;;;;5240512;28;20436;-47
2023/04/26 03:18:00;;;;;;;2.27;1.80;;;3.30;99.90;;;;;;5249867;28;20519;-46
2023/04/26 03:20:31;;;;;;;10.33;1.90;;;3.30;99.90;;;;;;5247015;28;20474;-47
2023/04/26 03:23:02;;;;;;;4.10;1.00;;;3.30;99.90;;;;;;5247095;28;20448;-48
2023/04/26 03:25:33;;;;;;;8.70;2.20;;;3.30;99.90;;;;;;5241128;28;20182;-48
2023/04/26 03:28:04;;;;;;;8.73;2.50;;;3.30;99.90;;;;;;5250880;28;20436;-46
2023/04/26 03:33:09;;;;;;;7.03;2.80;;;3.30;99.90;;;;;;5198809;28;20220;-48
2023/04/26 03:35:39;;;;;;;5.13;1.30;;;3.30;99.90;;;;;;5198211;28;20496;-46
2023/04/26 03:38:10;;;;;;;8.70;1.83;;;3.30;99.90;;;;;;5196044;28;20203;-46
2023/04/26 03:40:41;;;;;;;8.23;2.10;;;3.40;99.90;;;;;;5202174;28;20522;-48
2023/04/26 03:43:11;;;;;;;8.23;2.40;;;3.40;99.90;;;;;;5201183;28;20603;-46
2023/04/26 03:45:45;;;;;;;9.20;2.20;;;3.40;99.90;;;;;;5203784;28;20271;-46
2023/04/26 03:48:16;;;;;;;4.93;2.10;;;3.40;99.90;;;;;;5202077;28;20195;-46
2023/04/26 03:50:46;;;;;;;6.90;1.67;;;3.30;99.90;;;;;;5199376;28;20939;-46
2023/04/26 03:53:17;;;;;;;5.57;2.07;;;3.40;99.90;;;;;;5197782;28;20276;-48
2023/04/26 03:55:47;;;;;;;15.60;3.30;;;3.40;99.90;;;;;;5200088;28;20222;-47
2023/04/26 03:58:18;;;;;;;4.23;2.23;;;3.50;99.90;;;;;;5202684;28;20204;-47
2023/04/26 04:00:49;;;;;;;16.33;2.20;;;3.60;99.90;;;;;;5198753;28;21082;-47
2023/04/26 04:03:20;;;;;;;8.40;2.33;;;3.60;99.90;;;;;;5200816;28;20245;-46
2023/04/26 04:05:50;;;;;;;12.53;2.50;;;3.50;99.90;;;;;;5199999;28;20551;-46
2023/04/26 04:08:21;;;;;;;6.80;2.17;;;3.50;99.90;;;;;;5198208;28;20430;-47
2023/04/26 04:10:52;;;;;;;10.77;2.67;;;3.50;99.90;;;;;;5198365;28;20240;-46
2023/04/26 04:13:22;;;;;;;22.23;2.70;;;3.50;99.90;;;;;;5200662;28;20179;-48
2023/04/26 04:15:54;;;;;;;19.30;2.73;;;3.50;99.90;;;;;;5198063;28;20203;-46
2023/04/26 04:18:25;;;;;;;6.27;2.03;;;3.60;99.90;;;;;;5201960;28;20492;-47
2023/04/26 04:20:56;;;;;;;11.13;2.23;;;3.70;99.90;;;;;;5198265;28;20780;-47
2023/04/26 04:23:26;;;;;;;7.73;1.60;;;3.70;99.90;;;;;;5197181;28;20195;-46
2023/04/26 04:25:57;;;;;;;6.43;2.03;;;3.70;99.90;;;;;;5197387;28;20250;-46
2023/04/26 04:28:28;;;;;;;10.20;2.27;;;3.80;99.90;;;;;;5201892;28;20298;-46
2023/04/26 04:31:00;;;;;;;11.57;2.47;;;3.80;99.90;;;;;;5198475;28;20285;-46
2023/04/26 04:33:31;;;;;;;5.40;2.37;;;3.90;99.90;;;;;;5201360;28;20450;-47
2023/04/26 04:36:02;;;;;;;8.63;2.30;;;3.90;99.90;;;;;;5205565;28;20533;-47
2023/04/26 04:38:33;;;;;;;8.37;2.37;;;4.00;99.90;;;;;;5200128;28;20856;-46
2023/04/26 04:41:03;;;;;;;11.90;1.80;;;4.20;99.90;;;;;;5198772;28;20615;-46
2023/04/26 04:43:34;;;;;;;4.43;1.70;;;4.60;99.90;;;;;;5203366;28;20195;-46
2023/04/26 04:46:05;;;;;;;7.20;2.17;;;4.80;99.90;;;;;;5199798;28;20202;-46
2023/04/26 04:48:37;;;;;;;4.83;1.90;;;5.00;99.90;;;;;;5204342;28;20473;-47
2023/04/26 04:51:08;;;;;;;5.90;2.30;;;5.10;99.90;;;;;;5202863;28;20241;-46
2023/04/26 04:53:38;;;;;;;5.00;2.10;;;5.50;99.90;;;;;;5204749;28;20475;-46
2023/04/26 04:56:09;;;;;;;10.13;2.67;;;6.30;99.90;;;;;;5208258;28;20193;-47
2023/04/26 04:58:40;;;;;;;3.07;1.50;;;7.60;99.90;;;;;;5201144;28;20207;-47
2023/04/26 05:01:10;;;;;;;12.43;2.60;;;8.80;99.90;;;;;;5208338;28;20276;-48
2023/04/26 05:03:41;;;;;;;10.50;2.00;;;9.20;99.10;;;;;;5202710;28;20270;-47
2023/04/26 05:06:12;;;;;;;4.33;2.07;;;9.20;98.20;;;;;;5203165;28;20652;-47
2023/04/26 05:08:42;;;;;;;10.83;1.87;;;9.20;97.40;;;;;;5198864;28;20215;-47
2023/04/26 05:11:13;;;;;;;15.73;2.77;;;9.00;95.90;;;;;;5194537;28;20350;-49
2023/04/26 05:13:45;;;;;;;2.80;2.40;;;8.50;97.10;;;;;;5201678;28;20191;-47
2023/04/26 05:16:15;;;;;;;7.47;2.30;;;8.20;98.50;;;;;;5201256;28;20609;-47
2023/04/26 05:18:46;;;;;;;3.40;2.00;;;8.30;99.20;;;;;;5206230;28;20675;-47
2023/04/26 05:21:17;;;;;;;11.93;2.20;;;9.60;97.70;;;;;;5198840;28;20216;-48
2023/04/26 05:23:47;;;;;;;6.93;2.30;;;11.70;90.00;;;;;;5204950;28;20191;-48
2023/04/26 05:26:18;;;;;;;6.00;2.33;;;12.90;68.60;;;;;;5203040;28;20184;-45
2023/04/26 05:28:49;;;;;;;3.73;1.83;;;13.70;61.20;;;;;;5203176;28;20294;-46
2023/04/26 05:31:20;;;;;;;7.60;3.00;;;14.00;56.80;;;;;;5201541;28;20587;-46
2023/04/26 05:33:51;;;;;;;8.10;2.10;;;15.20;54.60;;;;;;5207431;28;20186;-45
2023/04/26 05:36:21;;;;;;;3.07;2.53;;;15.10;50.40;;;;;;5201162;28;20522;-46
2023/04/26 05:38:52;;;;;;;16.57;2.00;;;15.00;50.40;;;;;;5202755;28;20187;-46
2023/04/26 05:41:22;;;;;;;9.87;2.80;;;15.50;50.80;;;;;;5201934;28;20211;-46
2023/04/26 05:43:53;;;;;;;5.70;2.23;;;16.20;47.10;;;;;;5204562;28;20236;-46
2023/04/26 05:46:24;;;;;;;4.07;2.07;;;15.90;47.30;;;;;;5203259;28;20253;-46
2023/04/26 05:48:55;;;;;;;7.00;1.90;;;16.00;46.70;;;;;;5203579;28;20210;-47
2023/04/26 05:51:26;;;;;;;4.90;1.90;;;15.70;48.10;;;;;;5202397;28;20192;-46
2023/04/26 05:53:57;;;;;;;5.93;2.30;;;16.80;45.50;;;;;;5203412;28;20446;-48
2023/04/26 05:56:28;;;;;;;6.50;1.87;;;17.80;43.90;;;;;;5203766;28;20434;-46
2023/04/26 05:58:58;;;;;;;8.50;2.27;;;18.30;43.10;;;;;;5205105;28;20188;-47
2023/04/26 06:01:29;;;;;;;2.93;1.30;;;18.50;40.70;;;;;;5199163;28;20208;-46
2023/04/26 06:04:00;;;;;;;6.03;2.13;;;19.10;41.00;;;;;;5203756;28;20765;-46
2023/04/26 06:06:31;;;;;;;5.40;2.20;;;18.80;39.20;;;;;;5200535;28;20552;-47
2023/04/26 06:09:02;;;;;;;13.13;1.83;;;18.50;39.50;;;;;;5205524;28;20542;-47
2023/04/26 06:11:32;;;;;;;6.03;1.80;;;18.90;39.20;;;;;;5201016;28;20269;-47
2023/04/26 06:14:03;;;;;;;9.03;1.97;;;18.50;40.70;;;;;;5207368;28;20198;-46
2023/04/26 06:16:34;;;;;;;6.80;2.70;;;18.90;39.80;;;;;;5197942;28;20199;-48
2023/04/26 06:19:04;;;;;;;5.07;1.47;;;19.70;38.20;;;;;;5203640;28;20183;-47
2023/04/26 06:21:35;;;;;;;6.13;2.40;;;20.20;37.40;;;;;;5199164;28;20200;-46
2023/04/26 06:24:06;;;;;;;8.50;2.10;;;20.40;36.20;;;;;;5198943;28;20192;-46
2023/04/26 06:26:37;;;;;;;3.90;1.60;;;19.50;36.80;;;;;;5201287;28;20180;-46
2023/04/26 06:29:07;;;;;;;6.53;1.90;;;18.80;37.30;;;;;;5201935;28;20215;-46
2023/04/26 06:31:38;;;;;;;3.20;1.80;;;18.50;38.30;;;;;;5200260;28;20298;-47
2023/04/26 06:34:08;;;;;;;4.57;1.83;;;19.00;37.60;;;;;;5197797;28;20195;-47
2023/04/26 06:36:39;;;;;;;4.13;1.83;;;19.50;38.60;;;;;;5193921;28;20620;-47
2023/04/26 06:39:10;;;;;;;2.00;1.83;;;20.00;36.40;;;;;;5202632;28;20190;-48
2023/04/26 06:41:40;;;;;;;5.17;2.10;;;19.00;36.70;;;;;;5195772;28;20204;-47
2023/04/26 06:44:11;;;;;;;9.30;3.80;;;18.70;36.90;;;;;;5199657;28;20180;-47
2023/04/26 06:46:41;;;;;;;4.83;2.67;;;18.60;37.40;;;;;;5201090;28;20539;-44
2023/04/26 06:49:12;;;;;;;11.40;2.87;;;18.60;37.80;;;;;;5202898;28;20207;-48
2023/04/26 06:51:43;;;;;;;14.30;2.40;;;18.30;38.00;;;;;;5194519;28;20223;-47
2023/04/26 06:54:14;;;;;;;2.23;2.13;;;18.10;37.40;;;;;;5200688;28;20571;-46
2023/04/26 06:56:45;;;;;;;6.63;1.97;;;18.40;38.30;;;;;;5201704;28;20191;-46
2023/04/26 06:59:15;;;;;;;8.03;3.53;;;18.20;37.60;;;;;;5200888;28;20493;-48
2023/04/26 07:01:46;;;;;;;11.33;3.00;;;16.30;39.60;;;;;;5194817;28;20679;-45
2023/04/26 07:04:17;;;;;;;8.03;2.93;;;15.70;42.30;;;;;;5202895;28;20172;-46
2023/04/26 07:06:49;;;;;;;7.00;2.27;;;15.60;42.40;;;;;;5196792;28;20184;-46
2023/04/26 07:09:19;;;;;;;9.20;2.00;;;17.30;41.10;;;;;;5202602;28;20466;-46
2023/04/26 07:11:50;;;;;;;8.30;2.47;;;18.90;38.60;;;;;;5195532;28;20573;-47
2023/04/26 07:14:22;;;;;;;3.97;2.67;;;19.90;36.80;;;;;;5192978;28;20179;-46
2023/04/26 07:16:52;;;;;;;9.90;1.97;;;19.70;35.90;;;;;;5187775;28;20326;-47
2023/04/26 07:19:23;;;;;;;9.90;2.07;;;20.30;36.60;;;;;;5178510;28;20889;-48
2023/04/26 07:21:53;;;;;;;4.67;2.00;;;20.80;34.50;;;;;;5198907;28;20209;-47
2023/04/26 07:24:24;;;;;;;6.43;2.17;;;19.80;34.80;;;;;;5196076;28;20249;-48
2023/04/26 07:26:55;;;;;;;6.10;1.80;;;19.20;36.40;;;;;;5196335;28;20662;-47
2023/04/26 07:29:26;;;;;;;4.27;2.03;;;18.70;36.50;;;;;;5192145;28;20211;-46
2023/04/26 07:31:57;;;;;;;7.00;1.73;;;18.30;36.50;;;;;;5191357;28;21057;-48
2023/04/26 07:34:28;;;;;;;5.37;1.90;;;20.00;35.90;;;;;;5199554;28;20171;-47
2023/04/26 07:36:59;;;;;;;8.03;2.83;;;19.60;35.10;;;;;;5199472;28;20441;-46
2023/04/26 07:39:29;;;;;;;7.53;2.40;;;18.30;36.70;;;;;;5199667;28;20237;-48
2023/04/26 07:42:00;;;;;;;3.13;1.80;;;16.40;37.80;;;;;;5198144;28;20218;-46
2023/04/26 07:44:31;;;;;;;6.67;3.33;;;15.10;41.00;;;;;;5200589;28;20214;-46
2023/04/26 07:47:01;;;;;;;5.33;2.00;;;16.30;40.00;;;;;;5198849;28;20183;-46
2023/04/26 07:49:32;;;;;;;7.83;2.50;;;16.10;38.60;;;;;;5201227;28;20616;-48
2023/04/26 07:52:03;;;;;;;2.47;2.27;;;16.30;39.80;;;;;;5199266;28;20278;-46
2023/04/26 07:54:33;;;;;;;5.27;1.77;;;16.70;38.10;;;;;;5207704;28;20188;-46
2023/04/26 07:57:04;;;;;;;4.97;1.87;;;17.20;37.90;;;;;;5199594;28;20207;-47
2023/04/26 07:59:35;;;;;;;13.23;1.90;;;17.70;36.30;;;;;;5202156;28;20279;-47
2023/04/26 08:02:06;;;;;;;8.13;2.80;;;16.50;35.60;;;;;;5198296;28;20262;-46
2023/04/26 08:04:36;;;;;;;6.03;1.70;;;14.70;38.50;;;;;;5199773;28;20611;-47
2023/04/26 08:07:07;;;;;;;3.90;2.40;;;14.10;42.20;;;;;;5199494;28;20430;-46
2023/04/26 08:09:37;;;;;;;1.27;1.00;;;15.10;40.90;;;;;;5203340;28;20234;-46
2023/04/26 08:12:08;;;;;;;11.30;2.77;;;15.00;40.90;;;;;;5196868;28;20239;-47
2023/04/26 08:14:39;;;;;;;1.83;1.60;;;15.90;40.00;;;;;;5205131;28;20263;-46
2023/04/26 08:17:10;;;;;;;6.33;1.47;;;15.40;39.50;;;;;;5205081;28;20171;-47
2023/04/26 08:19:41;;;;;;;8.20;1.83;;;13.90;41.70;;;;;;5204604;28;20183;-46
2023/04/26 08:22:11;;;;;;;1.70;1.60;;;12.80;44.60;;;;;;5204105;28;20833;-46
2023/04/26 08:24:50;;;;;;;8.30;1.80;;;12.20;46.30;;;;;;5210100;28;20567;-47
2023/04/26 08:27:21;;;;;;;5.10;1.73;;;12.50;46.50;;;;;;5187762;28;20212;-46
2023/04/26 08:29:52;;;;;;;6.13;1.53;;;13.00;45.10;;;;;;5207559;28;20469;-47
2023/04/26 08:32:22;;;;;;;3.17;1.37;;;14.80;44.50;;;;;;5198764;28;20465;-48
2023/04/26 08:34:54;;;;;;;3.40;1.20;;;17.20;41.00;;;;;;5204617;28;20641;-46
2023/04/26 08:37:24;;;;;;;2.13;1.13;;;18.10;36.10;;;;;;5204940;28;20183;-48
2023/04/26 08:39:55;;;;;;;4.33;1.47;;;18.30;34.30;;;;;;5200791;28;20518;-47
2023/04/26 08:42:27;;;;;;;5.40;1.93;;;17.60;35.60;;;;;;5204864;28;20210;-46
2023/04/26 08:45:01;;;;;;;3.83;1.90;;;17.20;36.50;;;;;;5203449;28;20194;-46
2023/04/26 08:47:35;;;;;;;4.37;1.97;;;16.50;37.40;;;;;;5207426;28;20441;-47
2023/04/26 08:50:07;;;;;;;3.33;2.23;;;16.10;40.10;;;;;;5204477;28;20481;-47
2023/04/26 08:52:39;;;;;;;4.77;1.80;;;16.30;40.60;;;;;;5196886;28;20553;-47
2023/04/26 08:55:15;;;;;;;3.20;1.70;;;16.00;41.00;;;;;;5191028;28;20447;-46
2023/04/26 08:57:47;;;;;;;4.07;2.00;;;15.00;41.10;;;;;;5200791;28;24568;-48
2023/04/26 09:00:18;;;;;;;6.60;1.90;;;13.60;44.00;;;;;;5202400;28;20430;-46
2023/04/26 09:02:51;;;;;;;4.00;1.60;;;12.90;45.40;;;;;;5198007;28;20789;-48
2023/04/26 09:05:25;;;;;;;1.60;1.50;;;12.80;45.20;;;;;;5203271;28;20565;-47
2023/04/26 09:08:00;;;;;;;5.90;1.10;;;12.80;44.50;;;;;;5201376;28;20442;-48
2023/04/26 09:10:31;;;;;;;2.20;1.70;;;12.40;44.20;;;;;;5200966;28;20554;-48
2023/04/26 09:13:02;;;;;;;3.33;1.50;;;11.80;43.90;;;;;;5197963;28;20431;-47
2023/04/26 09:15:32;;;;;;;4.87;1.80;;;11.00;45.00;;;;;;5195328;28;20184;-47
2023/04/26 09:18:20;;;;;;;1.40;1.30;;;10.80;46.30;;;;;;5205559;28;20186;-47
2023/04/26 09:21:07;;;;;;;2.80;1.00;;;11.00;47.10;;;;;;5200391;28;20208;-47
2023/04/26 09:23:56;;;;;;;3.00;1.50;;;10.70;46.00;;;;;;5215157;28;20748;-48
2023/04/26 09:26:27;;;;;;;3.60;0.80;;;10.70;46.50;;;;;;5193191;28;20465;-48
2023/04/26 09:29:11;;;;;;;1.60;1.47;;;11.10;46.50;;;;;;5191495;28;20462;-48
2023/04/26 09:31:47;;;;;;;7.30;3.83;;;11.80;45.50;;;;;;5197191;28;20233;-48
2023/04/26 09:34:18;;;;;;;4.67;1.90;;;11.90;45.30;;;;;;5195586;28;20438;-47
2023/04/26 09:36:57;;;;;;;13.97;2.10;;;11.90;45.50;;;;;;5200051;28;20873;-48
2023/04/26 09:39:39;;;;;;;5.80;1.97;;;11.90;45.50;;;;;;5194210;28;20663;-46
2023/04/26 09:42:10;;;;;;;4.73;1.40;;;11.30;46.10;;;;;;5200212;28;20482;-48
2023/04/26 09:44:40;;;;;;;2.93;1.63;;;11.00;47.10;;;;;;5202414;28;20441;-47
2023/04/26 09:47:11;;;;;;;4.53;1.43;;;10.90;47.70;;;;;;5201311;28;20450;-48
2023/04/26 09:49:50;;;;;;;5.27;2.60;;;10.90;47.50;;;;;;5199719;28;20319;-48
2023/04/26 09:52:21;;;;;;;4.93;1.80;;;11.20;47.60;;;;;;5197015;28;20263;-48
2023/04/26 09:54:53;;;;;;;2.70;2.10;;;11.20;47.20;;;;;;5195410;28;20442;-47
2023/04/26 09:57:23;;;;;;;8.30;1.77;;;11.30;47.10;;;;;;5198553;28;20180;-47
2023/04/26 09:59:55;;;;;;;11.57;3.27;;;11.10;47.10;;;;;;5198357;28;20774;-46
2023/04/26 10:02:26;;;;;;;6.17;1.73;;;10.70;47.40;;;;;;5195941;28;20214;-46
2023/04/26 10:04:58;;;;;;;6.53;2.23;;;10.60;47.20;;;;;;5197536;28;21611;-47
2023/04/26 10:07:29;;;;;;;2.90;1.40;;;10.60;47.00;;;;;;5192763;28;20550;-47
2023/04/26 10:10:00;;;;;;;3.83;1.87;;;10.30;47.00;;;;;;5196899;28;20474;-47
2023/04/26 10:12:33;;;;;;;10.47;1.70;;;10.20;47.70;;;;;;5197655;28;20880;-47
2023/04/26 10:15:04;;;;;;;5.13;1.30;;;10.10;48.10;;;;;;5200561;28;20564;-47
2023/04/26 10:17:36;;;;;;;8.13;1.63;;;10.20;48.00;;;;;;5199908;28;20462;-49
2023/04/26 10:20:11;;;;;;;3.57;1.30;;;10.10;48.30;;;;;;5201548;28;20442;-46
2023/04/26 10:22:59;;;;;;;7.17;1.83;;;10.00;46.90;;;;;;5195214;28;20931;-48
2023/04/26 10:25:37;;;;;;;4.30;1.90;;;10.10;47.00;;;;;;5197362;28;20442;-46
2023/04/26 10:28:08;;;;;;;5.97;2.30;;;10.40;46.50;;;;;;5197940;28;20769;-47
2023/04/26 10:30:59;;;;;;;5.47;2.83;;;10.60;46.90;;;;;;5194890;28;20860;-50
2023/04/26 10:33:29;;;;;;;4.53;2.10;;;10.70;46.10;;;;;;5193984;28;20438;-47
2023/04/26 10:36:04;;;;;;;18.67;2.07;;;10.70;45.90;;;;;;5192238;28;20461;-48
2023/04/26 10:38:37;;;;;;;8.10;3.43;;;10.50;46.20;;;;;;5197749;28;20229;-49
2023/04/26 10:41:30;;;;;;;3.37;1.90;;;10.60;46.80;;;;;;5202921;28;20813;-47
2023/04/26 10:44:36;;;;;;;5.37;2.57;;;10.10;48.10;;;;;;5200408;28;20442;-47
2023/04/26 10:47:25;;;;;;;9.50;3.67;;;9.70;50.40;;;;;;5201025;28;20443;-46
2023/04/26 10:50:07;;;;;;;9.03;5.10;;;10.00;49.80;;;;;;5197777;28;20935;-46
2023/04/26 10:53:02;;;;;;;8.97;5.90;;;10.40;49.20;;;;;;5202755;28;20465;-47
2023/04/26 10:55:43;;;;;;;12.43;4.87;;;10.50;48.40;;;;;;5202222;28;20559;-47
2023/04/26 10:58:32;;;;;;;5.93;2.17;;;10.60;48.00;;;;;;5199314;28;20438;-47
2023/04/26 11:01:16;;;;;;;3.13;2.03;;;10.90;47.60;;;;;;5199061;28;20455;-47
2023/04/26 11:04:10;;;;;;;4.87;1.97;;;10.80;46.60;;;;;;5201022;28;20496;-47
2023/04/26 11:06:51;;;;;;;1.90;1.80;;;10.80;46.90;;;;;;5202217;28;20446;-46
2023/04/26 11:09:35;;;;;;;2.00;1.80;;;11.00;46.60;;;;;;5201574;28;20986;-48
2023/04/26 11:12:13;;;;;;;9.80;4.90;;;11.00;45.60;;;;;;5198143;28;20450;-48
2023/04/26 11:14:45;;;;;;;11.43;5.60;;;10.90;45.30;;;;;;5196358;28;20437;-48
2023/04/26 11:17:15;;;;;;;6.53;2.73;;;10.90;45.30;;;;;;5198709;28;20615;-47
2023/04/26 11:19:46;;;;;;;26.97;9.50;;;10.70;45.70;;;;;;5195407;28;21123;-47
2023/04/26 11:22:21;;;;;;;8.63;4.40;;;11.10;45.20;;;;;;5197622;28;20207;-49
2023/04/26 11:24:52;;;;;;;6.57;2.60;;;11.60;44.20;;;;;;5190039;28;20446;-47
2023/04/26 11:27:27;;;;;;;2.53;2.33;;;11.80;43.70;;;;;;5199482;28;20454;-47
2023/04/26 11:30:01;;;;;;;3.87;2.50;;;12.00;43.70;;;;;;5192857;28;20261;-48
2023/04/26 11:32:32;;;;;;;6.10;2.30;;;12.10;42.10;;;;;;5198371;28;20461;-46
2023/04/26 11:35:03;;;;;;;2.17;1.70;;;12.20;42.40;;;;;;5195858;28;20453;-46
2023/04/26 11:37:34;;;;;;;2.20;1.67;;;12.50;41.90;;;;;;5201171;28;20449;-47
2023/04/26 11:40:06;;;;;;;7.37;2.40;;;12.50;42.00;;;;;;5199470;28;20450;-49
2023/04/26 11:42:37;;;;;;;2.20;1.93;;;13.00;42.10;;;;;;5194165;28;20199;-49
2023/04/26 11:45:08;;;;;;;2.80;1.57;;;13.10;40.70;;;;;;5196049;28;20442;-46
2023/04/26 11:47:39;;;;;;;6.50;2.40;;;13.10;40.50;;;;;;5195111;28;20240;-48
2023/04/26 11:50:10;;;;;;;6.77;2.70;;;13.00;41.10;;;;;;5195720;28;20497;-48
2023/04/26 11:52:41;;;;;;;7.43;2.97;;;12.50;41.50;;;;;;5197734;28;20472;-49
2023/04/26 11:55:13;;;;;;;6.07;2.20;;;12.60;41.30;;;;;;5191484;28;20947;-46
2023/04/26 11:57:44;;;;;;;7.90;1.97;;;12.60;41.10;;;;;;5198900;28;20445;-47
2023/04/26 12:00:15;;;;;;;6.13;2.40;;;12.50;40.20;;;;;;5202443;28;20517;-47
2023/04/26 12:02:46;;;;;;;12.13;6.00;;;12.30;39.60;;;;;;5203278;28;21398;-47
2023/04/26 12:05:29;;;;;;;5.20;3.83;;;12.10;40.40;;;;;;5199196;28;20457;-48
2023/04/26 12:08:00;;;;;;;4.87;1.93;;;12.20;39.60;;;;;;5204934;28;20450;-47
2023/04/26 12:10:36;;;;;;;7.07;2.53;;;12.30;39.80;;;;;;5198623;28;20472;-48
2023/04/26 12:13:08;;;;;;;10.60;2.73;;;12.30;40.60;;;;;;5201911;28;20183;-47
2023/04/26 12:15:38;;;;;;;4.87;2.17;;;12.10;41.30;;;;;;5203691;28;20484;-48
2023/04/26 12:18:10;;;;;;;7.40;2.30;;;12.20;41.60;;;;;;5201308;28;20466;-49
2023/04/26 12:20:42;;;;;;;6.70;3.27;;;12.40;41.70;;;;;;5199840;28;20194;-49
2023/04/26 12:23:15;;;;;;;5.20;2.60;;;12.50;41.30;;;;;;5199883;28;20984;-47
2023/04/26 12:25:54;;;;;;;9.07;3.13;;;12.40;41.70;;;;;;5206917;28;22043;-47
2023/04/26 12:28:25;;;;;;;4.10;2.40;;;12.60;41.80;;;;;;5208851;28;20469;-46
2023/04/26 12:30:55;;;;;;;9.93;2.37;;;12.60;41.90;;;;;;5207202;28;20866;-46
2023/04/26 12:33:26;;;;;;;8.13;3.30;;;12.70;42.20;;;;;;5208539;28;20213;-48
2023/04/26 12:35:59;;;;;;;5.80;2.40;;;12.80;41.90;;;;;;5207508;28;20641;-47
2023/04/26 12:38:29;;;;;;;3.50;2.30;;;12.70;42.10;;;;;;5204015;28;20189;-47
2023/04/26 12:41:00;;;;;;;7.83;2.77;;;12.50;42.60;;;;;;5209100;28;20832;-47
2023/04/26 12:43:31;;;;;;;3.40;2.07;;;12.40;43.00;;;;;;5191634;28;20210;-47
2023/04/26 12:46:02;;;;;;;2.83;2.63;;;12.40;43.30;;;;;;5208399;28;20194;-47
2023/04/26 12:48:32;;;;;;;9.93;2.43;;;12.30;43.80;;;;;;5208886;28;20211;-46
2023/04/26 12:51:03;;;;;;;4.83;2.53;;;12.00;43.90;;;;;;5209511;28;20298;-48
2023/04/26 12:53:33;;;;;;;3.30;3.00;;;11.80;44.00;;;;;;5206627;28;20183;-47
2023/04/26 12:56:04;;;;;;;5.10;2.37;;;12.00;43.90;;;;;;5202103;28;20191;-46
2023/04/26 12:58:35;;;;;;;5.07;2.67;;;12.00;44.00;;;;;;5201979;28;20643;-46
2023/04/26 13:01:06;;;;;;;19.53;2.50;;;12.50;44.20;;;;;;5208717;28;20449;-47
2023/04/26 13:03:36;;;;;;;6.67;4.53;;;12.70;42.10;;;;;;5202432;28;20323;-47
2023/04/26 13:06:07;;;;;;;11.63;2.77;;;12.70;41.30;;;;;;5205224;28;20245;-46
2023/04/26 13:08:38;;;;;;;9.60;3.00;;;12.70;41.60;;;;;;5203674;28;20193;-49
2023/04/26 13:11:09;;;;;;;13.77;2.80;;;12.80;41.50;;;;;;5203863;28;20515;-47
2023/04/26 13:13:39;;;;;;;4.93;2.27;;;12.90;41.30;;;;;;5203156;28;20657;-48
2023/04/26 13:16:11;;;;;;;2.97;1.87;;;13.00;41.00;;;;;;5200416;28;20186;-50
2023/04/26 13:18:41;;;;;;;8.83;1.87;;;13.30;40.70;;;;;;5205801;28;20263;-47